Time;durP1;ratioP1;P1;durP2;ratioP2;P2;SDS_P1;SDS_P2;PMS_P1;PMS_P2;Temp;Humidity;BMP_temperature;BMP_pressure;BME280_temperature;BME280_humidity;BME280_pressure;Samples;Min_cycle;Max_cycle;Signal;HPM_P1;HPM_P2
2022/07/02 00:00:49;;;;;;;2.23;1.30;;;14.40;98.00;;;;;;5054100;28;20536;-66
2022/07/02 00:03:24;;;;;;;1.80;1.50;;;14.50;98.00;;;;;;5054386;28;20454;-66
2022/07/02 00:05:57;;;;;;;1.63;1.30;;;14.40;98.00;;;;;;5054184;28;20969;-66
2022/07/02 00:08:25;;;;;;;1.87;1.50;;;14.30;98.00;;;;;;5053969;28;20874;-66
2022/07/02 00:10:53;;;;;;;2.03;1.60;;;14.20;98.00;;;;;;5054085;28;20456;-66
2022/07/02 00:13:22;;;;;;;1.30;1.20;;;14.10;98.00;;;;;;5054093;28;20551;-66
2022/07/02 00:15:49;;;;;;;1.57;1.23;;;14.00;98.00;;;;;;5052757;28;20451;-66
2022/07/02 00:18:19;;;;;;;1.50;1.27;;;14.00;98.00;;;;;;5054159;28;20450;-66
2022/07/02 00:20:46;;;;;;;2.30;1.57;;;14.00;98.00;;;;;;5053842;28;20458;-66
2022/07/02 00:23:13;;;;;;;1.70;1.47;;;14.00;98.00;;;;;;5053856;28;20456;-66
2022/07/02 00:25:42;;;;;;;1.90;1.47;;;14.10;98.00;;;;;;5053694;28;20488;-66
2022/07/02 00:28:13;;;;;;;2.37;1.43;;;14.00;98.00;;;;;;5053668;28;20477;-66
2022/07/02 00:30:42;;;;;;;1.30;1.30;;;14.00;98.00;;;;;;5053548;28;20460;-66
2022/07/02 00:33:13;;;;;;;1.77;1.50;;;14.00;98.00;;;;;;5053550;28;20837;-66
2022/07/02 00:35:42;;;;;;;1.77;1.40;;;14.10;98.00;;;;;;5053531;28;20454;-66
2022/07/02 00:38:10;;;;;;;3.57;1.67;;;14.20;98.00;;;;;;5053446;28;20454;-66
2022/07/02 00:40:38;;;;;;;1.53;1.23;;;14.20;98.00;;;;;;5053342;28;20456;-66
2022/07/02 00:43:06;;;;;;;1.60;1.37;;;14.20;98.00;;;;;;5053536;28;20462;-66
2022/07/02 00:45:36;;;;;;;1.87;1.37;;;14.10;98.00;;;;;;5053425;28;20951;-66
2022/07/02 00:48:03;;;;;;;1.27;1.20;;;14.10;98.00;;;;;;5053236;28;20514;-67
2022/07/02 00:50:32;;;;;;;1.40;1.20;;;14.10;98.00;;;;;;5053187;28;20971;-66
2022/07/02 00:53:00;;;;;;;1.73;1.30;;;14.00;98.00;;;;;;5052892;28;20460;-66
2022/07/02 00:55:28;;;;;;;1.23;1.10;;;14.00;98.00;;;;;;5053078;28;20464;-66
2022/07/02 00:57:55;;;;;;;1.30;1.10;;;14.10;98.00;;;;;;5053097;28;20452;-66
2022/07/02 01:00:22;;;;;;;2.53;1.50;;;14.00;98.00;;;;;;5053012;28;20522;-66
2022/07/02 01:02:51;;;;;;;1.50;1.37;;;13.90;98.00;;;;;;5053007;28;20456;-66
2022/07/02 01:05:20;;;;;;;1.70;1.30;;;13.80;98.00;;;;;;5051836;28;20453;-66
2022/07/02 01:10:16;;;;;;;1.70;1.37;;;13.90;98.00;;;;;;5052996;28;20883;-66
2022/07/02 01:10:40;;;;;;;1.30;1.10;;;13.80;98.00;;;;;;5052715;28;20479;-66
2022/07/02 01:13:11;;;;;;;1.53;1.40;;;13.70;98.00;;;;;;5053038;28;20811;-66
2022/07/02 01:15:39;;;;;;;1.40;1.30;;;13.70;98.00;;;;;;5052741;28;20460;-66
2022/07/02 01:18:07;;;;;;;1.53;1.20;;;13.70;98.00;;;;;;5052827;28;20938;-66
2022/07/02 01:20:34;;;;;;;1.40;1.20;;;13.80;98.00;;;;;;5053090;28;20468;-66
2022/07/02 01:23:03;;;;;;;1.43;1.37;;;13.60;98.00;;;;;;5052380;28;20462;-66
2022/07/02 01:25:30;;;;;;;1.30;1.10;;;13.60;98.00;;;;;;5052744;28;21038;-66
2022/07/02 01:27:57;;;;;;;1.63;1.20;;;13.40;98.00;;;;;;5052538;28;20853;-66
2022/07/02 01:30:25;;;;;;;1.20;1.10;;;13.40;98.00;;;;;;5052455;28;20656;-67
2022/07/02 01:32:52;;;;;;;1.47;1.30;;;13.60;98.00;;;;;;5052312;28;20835;-67
2022/07/02 01:35:19;;;;;;;1.30;1.20;;;13.60;98.00;;;;;;5052613;28;20475;-66
2022/07/02 01:37:46;;;;;;;1.80;1.40;;;13.60;98.00;;;;;;5051073;28;20795;-66
2022/07/02 01:40:15;;;;;;;1.30;1.13;;;13.60;98.00;;;;;;5052457;28;20820;-66
2022/07/02 01:42:43;;;;;;;2.40;1.40;;;13.60;98.00;;;;;;5052432;28;20453;-66
2022/07/02 01:45:11;;;;;;;1.30;1.10;;;13.60;98.00;;;;;;5052127;28;20456;-66
2022/07/02 01:47:38;;;;;;;1.40;1.10;;;13.60;98.00;;;;;;5052109;28;20481;-66
2022/07/02 01:50:07;;;;;;;1.43;1.30;;;13.60;98.00;;;;;;5052011;28;20456;-66
2022/07/02 01:52:36;;;;;;;1.60;1.23;;;13.60;98.00;;;;;;5052191;28;20461;-66
2022/07/02 01:55:04;;;;;;;1.53;1.20;;;13.60;98.00;;;;;;5051916;28;20463;-66
2022/07/02 01:57:35;;;;;;;1.30;1.10;;;13.60;98.00;;;;;;5051899;28;20456;-66
2022/07/02 02:00:03;;;;;;;1.23;1.20;;;13.50;98.00;;;;;;5052022;28;20464;-66
2022/07/02 02:02:30;;;;;;;1.47;1.23;;;13.50;98.00;;;;;;5051796;28;20565;-66
2022/07/02 02:04:59;;;;;;;1.70;1.40;;;13.40;98.00;;;;;;5051440;28;20453;-66
2022/07/02 02:07:26;;;;;;;1.50;1.20;;;13.40;98.00;;;;;;5051699;28;20907;-66
2022/07/02 02:09:54;;;;;;;1.23;1.10;;;13.20;98.00;;;;;;5051862;28;20465;-66
2022/07/02 02:12:21;;;;;;;1.70;1.10;;;13.20;98.00;;;;;;5051939;28;20491;-66
2022/07/02 02:14:50;;;;;;;1.23;1.20;;;13.20;98.00;;;;;;5051672;28;20463;-66
2022/07/02 02:17:17;;;;;;;1.40;1.30;;;13.10;98.00;;;;;;5051838;28;20471;-66
2022/07/02 02:19:44;;;;;;;1.57;1.30;;;13.10;98.00;;;;;;5051939;28;20485;-66
2022/07/02 02:22:11;;;;;;;1.87;1.30;;;13.10;98.00;;;;;;5051741;28;20465;-66
2022/07/02 02:24:38;;;;;;;2.17;1.63;;;13.00;98.00;;;;;;5051457;28;20451;-66
2022/07/02 02:27:06;;;;;;;1.20;1.00;;;12.90;98.00;;;;;;5051469;28;20463;-66
2022/07/02 02:29:33;;;;;;;1.30;1.17;;;12.90;98.00;;;;;;5051436;28;20498;-66
2022/07/02 02:32:02;;;;;;;1.50;1.23;;;12.90;98.00;;;;;;5051422;28;20459;-66
2022/07/02 02:34:29;;;;;;;1.97;1.47;;;12.80;98.00;;;;;;5051492;28;20882;-66
2022/07/02 02:39:38;;;;;;;1.60;1.10;;;12.80;98.00;;;;;;5050956;28;20987;-66
2022/07/02 02:42:06;;;;;;;1.50;1.30;;;12.80;98.00;;;;;;5051130;28;20465;-66
2022/07/02 02:44:33;;;;;;;1.50;1.30;;;12.80;98.00;;;;;;5051249;28;20452;-66
2022/07/02 02:47:02;;;;;;;1.20;1.00;;;12.90;98.00;;;;;;5051381;28;20857;-66
2022/07/02 02:49:29;;;;;;;1.90;1.50;;;12.80;98.00;;;;;;5050967;28;20489;-66
2022/07/02 02:51:56;;;;;;;2.73;1.40;;;12.70;98.00;;;;;;5051026;28;20455;-66
2022/07/02 02:54:24;;;;;;;1.50;1.40;;;12.70;98.00;;;;;;5051172;28;20470;-66
2022/07/02 02:56:52;;;;;;;1.60;1.50;;;12.70;98.00;;;;;;5050863;28;20462;-66
2022/07/02 02:59:19;;;;;;;1.93;1.33;;;12.60;98.00;;;;;;5050926;28;20500;-66
2022/07/02 03:01:46;;;;;;;1.93;1.47;;;12.60;98.00;;;;;;5050993;28;20973;-66
2022/07/02 03:04:14;;;;;;;2.03;1.63;;;12.70;98.00;;;;;;5050979;28;20957;-66
2022/07/02 03:06:42;;;;;;;1.50;1.30;;;12.80;98.00;;;;;;5050911;28;20460;-66
2022/07/02 03:09:09;;;;;;;1.60;1.23;;;12.80;98.00;;;;;;5050787;28;20496;-66
2022/07/02 03:11:36;;;;;;;1.63;1.40;;;12.70;98.00;;;;;;5050940;28;20461;-66
2022/07/02 03:14:03;;;;;;;1.97;1.53;;;12.70;98.00;;;;;;5049376;28;20462;-66
2022/07/02 03:16:31;;;;;;;1.80;1.30;;;12.60;98.00;;;;;;5051378;28;20464;-66
2022/07/02 03:18:58;;;;;;;2.07;1.20;;;12.60;98.00;;;;;;5055080;28;20462;-66
2022/07/02 03:21:27;;;;;;;1.37;1.13;;;12.60;98.00;;;;;;5055004;28;20517;-66
2022/07/02 03:23:54;;;;;;;1.43;1.10;;;12.50;98.00;;;;;;5054973;28;20464;-66
2022/07/02 03:26:21;;;;;;;1.93;1.30;;;12.50;98.00;;;;;;5054708;28;20466;-66
2022/07/02 03:28:48;;;;;;;1.60;1.50;;;12.50;98.00;;;;;;5054832;28;20482;-66
2022/07/02 03:31:16;;;;;;;2.10;1.50;;;12.60;98.00;;;;;;5054602;28;20469;-66
2022/07/02 03:33:44;;;;;;;1.60;1.57;;;12.70;98.00;;;;;;5055112;28;20827;-66
2022/07/02 03:36:11;;;;;;;1.50;1.20;;;12.70;98.00;;;;;;5054470;28;20456;-66
2022/07/02 03:38:40;;;;;;;1.30;1.10;;;12.60;98.00;;;;;;5054691;28;20518;-66
2022/07/02 03:41:08;;;;;;;1.30;1.07;;;12.60;98.00;;;;;;5054475;28;20512;-66
2022/07/02 03:43:35;;;;;;;1.50;1.20;;;12.60;98.00;;;;;;5054693;28;20527;-66
2022/07/02 03:46:02;;;;;;;1.87;1.40;;;12.50;98.00;;;;;;5054334;28;20456;-66
2022/07/02 03:48:29;;;;;;;1.50;1.40;;;12.50;98.00;;;;;;5054532;28;20491;-66
2022/07/02 03:50:57;;;;;;;1.47;1.10;;;12.60;98.00;;;;;;5054333;28;20980;-66
2022/07/02 03:53:25;;;;;;;1.53;1.40;;;12.60;98.00;;;;;;5053811;28;21026;-66
2022/07/02 03:55:53;;;;;;;2.03;1.50;;;12.60;98.00;;;;;;5054256;28;20457;-66
2022/07/02 03:58:21;;;;;;;3.23;1.40;;;12.60;98.00;;;;;;5054159;28;20468;-66
2022/07/02 04:00:48;;;;;;;2.23;1.37;;;12.60;98.00;;;;;;5054275;28;20964;-66
2022/07/02 04:03:15;;;;;;;1.60;1.50;;;12.60;98.00;;;;;;5053989;28;20457;-66
2022/07/02 04:05:43;;;;;;;1.47;1.20;;;12.70;98.00;;;;;;5054182;28;20816;-66
2022/07/02 04:08:10;;;;;;;1.60;1.30;;;12.70;98.00;;;;;;5053800;28;21022;-66
2022/07/02 04:10:37;;;;;;;1.60;1.27;;;12.70;98.00;;;;;;5054015;28;20461;-66
2022/07/02 04:13:10;;;;;;;1.80;1.40;;;12.70;98.00;;;;;;5053910;28;20471;-66
2022/07/02 04:15:38;;;;;;;1.50;1.10;;;12.60;98.00;;;;;;5052569;28;20449;-66
2022/07/02 04:18:05;;;;;;;1.30;1.17;;;12.50;98.00;;;;;;5053827;28;20830;-66
2022/07/02 04:20:33;;;;;;;1.80;1.57;;;12.50;98.00;;;;;;5054240;28;20461;-66
2022/07/02 04:23:00;;;;;;;1.77;1.57;;;12.50;98.00;;;;;;5054053;28;20505;-66
2022/07/02 04:25:28;;;;;;;1.80;1.30;;;12.60;98.00;;;;;;5053686;28;20844;-66
2022/07/02 04:27:55;;;;;;;1.50;1.20;;;12.60;98.00;;;;;;5053173;28;20945;-66
2022/07/02 04:30:24;;;;;;;1.50;1.20;;;12.50;98.00;;;;;;5053678;28;20510;-66
2022/07/02 04:32:51;;;;;;;1.77;1.30;;;12.50;98.00;;;;;;5053852;28;20468;-66
2022/07/02 04:35:18;;;;;;;1.40;1.00;;;12.50;98.00;;;;;;5053879;28;20481;-66
2022/07/02 04:37:45;;;;;;;2.33;1.30;;;12.50;98.00;;;;;;5053606;28;20835;-66
2022/07/02 04:40:14;;;;;;;1.57;1.20;;;12.50;98.00;;;;;;5053344;28;20964;-66
2022/07/02 04:42:41;;;;;;;1.63;1.30;;;12.50;98.00;;;;;;5053706;28;20472;-66
2022/07/02 04:45:09;;;;;;;1.77;1.33;;;12.60;98.00;;;;;;5053370;28;20951;-66
2022/07/02 04:47:37;;;;;;;1.60;1.27;;;12.60;98.00;;;;;;5053310;28;20467;-66
2022/07/02 04:50:06;;;;;;;1.50;1.20;;;12.70;98.00;;;;;;5053174;28;20489;-66
2022/07/02 04:52:34;;;;;;;2.00;1.20;;;12.80;98.00;;;;;;5053279;28;20476;-66
2022/07/02 04:55:01;;;;;;;1.90;1.60;;;12.90;98.00;;;;;;5053150;28;20456;-66
2022/07/02 04:57:28;;;;;;;1.50;1.20;;;13.10;98.00;;;;;;5053161;28;20457;-66
2022/07/02 04:59:56;;;;;;;1.63;1.47;;;13.30;98.00;;;;;;5053182;28;20486;-66
2022/07/02 05:02:24;;;;;;;1.23;1.13;;;13.30;98.00;;;;;;5052921;28;20455;-66
2022/07/02 05:04:55;;;;;;;1.77;1.43;;;13.40;98.00;;;;;;5053138;28;20458;-66
2022/07/02 05:07:22;;;;;;;1.77;1.40;;;13.60;98.00;;;;;;5052396;28;20458;-66
2022/07/02 05:09:49;;;;;;;1.70;1.30;;;13.70;98.00;;;;;;5052817;28;20485;-65
2022/07/02 05:12:16;;;;;;;1.57;1.17;;;13.80;98.00;;;;;;5051432;28;20915;-65
2022/07/02 05:14:44;;;;;;;1.70;1.27;;;14.00;98.00;;;;;;5053020;28;20470;-66
2022/07/02 05:17:11;;;;;;;1.30;1.17;;;14.10;98.00;;;;;;5051646;28;20452;-66
2022/07/02 05:19:38;;;;;;;1.20;1.10;;;14.10;98.00;;;;;;5052788;28;20460;-66
2022/07/02 05:22:07;;;;;;;1.60;1.33;;;14.00;98.00;;;;;;5052823;28;20453;-66
2022/07/02 05:24:34;;;;;;;1.50;1.40;;;14.00;98.00;;;;;;5052695;28;20513;-66
2022/07/02 05:27:01;;;;;;;2.20;1.63;;;14.10;98.00;;;;;;5052487;28;20455;-66
2022/07/02 05:29:28;;;;;;;1.87;1.40;;;14.10;98.00;;;;;;5052533;28;20486;-66
2022/07/02 05:31:55;;;;;;;2.17;1.87;;;14.10;98.00;;;;;;5052700;28;20816;-66
2022/07/02 05:34:22;;;;;;;2.57;1.50;;;14.20;98.00;;;;;;5052337;28;21004;-66
2022/07/02 05:37:07;;;;;;;1.60;1.37;;;14.30;98.00;;;;;;5052333;28;20455;-66
2022/07/02 05:39:34;;;;;;;1.30;1.13;;;14.30;98.00;;;;;;5049809;28;20457;-66
2022/07/02 05:42:01;;;;;;;1.40;1.30;;;14.40;98.00;;;;;;5052315;28;20462;-65
2022/07/02 05:44:28;;;;;;;1.70;1.40;;;14.60;98.00;;;;;;5052391;28;20467;-66
2022/07/02 05:46:56;;;;;;;1.33;1.30;;;14.70;98.00;;;;;;5052189;28;20464;-66
2022/07/02 05:49:23;;;;;;;1.77;1.60;;;14.70;98.00;;;;;;5052017;28;20480;-66
2022/07/02 05:51:50;;;;;;;1.90;1.80;;;14.80;98.00;;;;;;5051925;28;20474;-66
2022/07/02 05:54:18;;;;;;;1.63;1.30;;;14.90;98.00;;;;;;5051989;28;20460;-66
2022/07/02 05:56:45;;;;;;;1.30;1.20;;;14.90;98.00;;;;;;5051790;28;20527;-66
2022/07/02 05:59:12;;;;;;;1.47;1.20;;;15.00;98.00;;;;;;5051934;28;20453;-66
2022/07/02 06:01:40;;;;;;;1.20;1.10;;;15.10;98.00;;;;;;5052062;28;20455;-65
2022/07/02 06:04:07;;;;;;;1.80;1.40;;;15.20;98.00;;;;;;5051824;28;20456;-66
2022/07/02 06:09:20;;;;;;;1.70;1.33;;;15.50;98.00;;;;;;5051570;28;20483;-66
2022/07/02 06:11:47;;;;;;;2.07;1.40;;;15.80;98.00;;;;;;5051619;28;20461;-66
2022/07/02 06:14:14;;;;;;;1.30;1.20;;;15.90;98.00;;;;;;5051572;28;20500;-66
2022/07/02 06:16:41;;;;;;;2.23;1.50;;;16.10;98.00;;;;;;5051627;28;20509;-66
2022/07/02 06:19:08;;;;;;;1.70;1.40;;;16.20;98.00;;;;;;5051638;28;20477;-66
2022/07/02 06:21:36;;;;;;;2.17;1.70;;;16.30;98.00;;;;;;5051861;28;20823;-66
2022/07/02 06:24:03;;;;;;;1.40;1.30;;;16.40;98.00;;;;;;5051801;28;20464;-66
2022/07/02 06:26:32;;;;;;;1.83;1.67;;;16.50;98.00;;;;;;5051501;28;20476;-66
2022/07/02 06:28:59;;;;;;;1.87;1.50;;;16.70;98.00;;;;;;5051566;28;20490;-66
2022/07/02 06:31:26;;;;;;;1.50;1.30;;;16.80;98.00;;;;;;5051349;28;20458;-66
2022/07/02 06:33:55;;;;;;;1.83;1.30;;;16.90;98.00;;;;;;5051456;28;20449;-66
2022/07/02 06:36:24;;;;;;;1.57;1.40;;;16.90;98.00;;;;;;5051279;28;20458;-66
2022/07/02 06:38:52;;;;;;;2.60;1.47;;;17.10;98.00;;;;;;5051280;28;20449;-64
2022/07/02 06:44:08;;;;;;;3.47;1.80;;;17.30;98.00;;;;;;5051336;28;20590;-67
2022/07/02 06:46:35;;;;;;;2.03;1.50;;;17.30;98.00;;;;;;5051197;28;20461;-67
2022/07/02 06:49:03;;;;;;;2.47;1.77;;;17.40;98.00;;;;;;5051186;28;20992;-67
2022/07/02 06:51:30;;;;;;;1.20;1.20;;;17.50;98.00;;;;;;5051131;28;20454;-67
2022/07/02 06:54:00;;;;;;;1.70;1.27;;;17.50;98.00;;;;;;5051168;28;20516;-67
2022/07/02 06:56:28;;;;;;;1.40;1.20;;;17.60;98.00;;;;;;5036687;28;20833;-67
2022/07/02 06:58:56;;;;;;;2.27;1.50;;;17.70;98.00;;;;;;5031305;28;20803;-67
2022/07/02 07:01:25;;;;;;;2.30;1.40;;;17.80;98.00;;;;;;5031140;28;20957;-67
2022/07/02 07:03:52;;;;;;;1.83;1.53;;;17.90;98.00;;;;;;5031387;28;20457;-67
2022/07/02 07:06:29;;;;;;;1.73;1.30;;;18.00;98.00;;;;;;5031392;28;20828;-67
2022/07/02 07:08:56;;;;;;;1.67;1.27;;;18.20;98.00;;;;;;5031746;28;21024;-67
2022/07/02 07:11:32;;;;;;;1.40;1.10;;;18.30;98.00;;;;;;5031949;28;20455;-67
2022/07/02 07:13:59;;;;;;;1.53;1.30;;;18.30;98.00;;;;;;5031711;28;20546;-67
2022/07/02 07:16:34;;;;;;;2.00;1.20;;;18.40;98.00;;;;;;5031596;28;20466;-67
2022/07/02 07:19:08;;;;;;;1.40;1.10;;;18.50;98.00;;;;;;5031548;28;20458;-67
2022/07/02 07:21:37;;;;;;;1.70;1.37;;;18.50;98.00;;;;;;5031678;28;20515;-67
2022/07/02 07:24:05;;;;;;;1.40;1.40;;;18.60;98.00;;;;;;5031311;28;20512;-67
2022/07/02 07:26:33;;;;;;;1.63;1.20;;;18.80;98.00;;;;;;5031368;28;21157;-68
2022/07/02 07:29:00;;;;;;;1.67;1.33;;;19.00;98.00;;;;;;5030877;28;20486;-67
2022/07/02 07:31:28;;;;;;;1.60;1.13;;;19.10;98.00;;;;;;5030897;28;20462;-67
2022/07/02 07:33:57;;;;;;;1.93;1.30;;;19.30;98.00;;;;;;5030934;28;20462;-67
2022/07/02 07:36:26;;;;;;;1.20;1.17;;;19.30;98.00;;;;;;5030823;28;20613;-68
2022/07/02 07:38:54;;;;;;;1.50;1.23;;;19.40;98.00;;;;;;5030801;28;20461;-67
2022/07/02 07:41:23;;;;;;;1.60;1.20;;;19.50;98.00;;;;;;5039081;28;20444;-68
2022/07/02 07:43:52;;;;;;;1.33;1.23;;;19.50;98.00;;;;;;5070880;28;20456;-67
2022/07/02 07:46:19;;;;;;;1.50;1.33;;;19.60;98.00;;;;;;5070534;28;20514;-68
2022/07/02 07:48:47;;;;;;;1.43;1.23;;;19.70;98.00;;;;;;5070371;28;20660;-68
2022/07/02 07:51:16;;;;;;;1.70;1.40;;;19.80;98.00;;;;;;5070507;28;20453;-68
2022/07/02 07:53:44;;;;;;;1.50;1.23;;;19.90;98.00;;;;;;5070552;28;20457;-68
2022/07/02 07:56:12;;;;;;;1.93;1.60;;;20.00;98.00;;;;;;5070454;28;20461;-68
2022/07/02 07:58:39;;;;;;;1.50;1.30;;;20.10;98.00;;;;;;5070226;28;20460;-67
2022/07/02 08:01:07;;;;;;;2.40;1.27;;;20.20;98.00;;;;;;5070415;28;20485;-67
2022/07/02 08:03:34;;;;;;;1.50;1.40;;;20.40;98.00;;;;;;5072137;28;20456;-67
2022/07/02 08:06:01;;;;;;;4.10;2.47;;;20.40;98.00;;;;;;5074069;28;20453;-67
2022/07/02 08:08:30;;;;;;;2.73;1.87;;;20.60;98.00;;;;;;5070615;28;20457;-68
2022/07/02 08:10:57;;;;;;;1.70;1.40;;;20.60;98.00;;;;;;5050483;28;20481;-68
2022/07/02 08:13:24;;;;;;;1.87;1.50;;;20.80;98.00;;;;;;5050160;28;20462;-68
2022/07/02 08:15:51;;;;;;;1.50;1.40;;;20.90;98.00;;;;;;5051460;28;20465;-69
2022/07/02 08:18:19;;;;;;;1.90;1.40;;;21.00;98.00;;;;;;5052447;28;20879;-67
2022/07/02 08:20:46;;;;;;;1.40;1.37;;;21.10;98.00;;;;;;5053909;28;20464;-67
2022/07/02 08:23:13;;;;;;;1.73;1.47;;;21.20;98.00;;;;;;5053848;28;20449;-68
2022/07/02 08:25:42;;;;;;;1.83;1.47;;;21.30;98.00;;;;;;5054338;28;20468;-68
2022/07/02 08:28:09;;;;;;;1.30;1.20;;;21.50;98.00;;;;;;5054122;28;20544;-68
2022/07/02 08:30:38;;;;;;;1.40;1.30;;;21.50;98.00;;;;;;5054059;28;20508;-69
2022/07/02 08:33:05;;;;;;;2.13;1.97;;;21.70;98.00;;;;;;5054126;28;21160;-68
2022/07/02 08:35:32;;;;;;;1.63;1.53;;;21.80;98.00;;;;;;5054191;28;20944;-68
2022/07/02 08:37:59;;;;;;;1.67;1.50;;;21.90;98.00;;;;;;5053887;28;20683;-68
2022/07/02 08:40:30;;;;;;;2.70;1.20;;;21.90;98.00;;;;;;5053346;28;20511;-68
2022/07/02 08:43:00;;;;;;;2.30;1.30;;;22.10;97.10;;;;;;5052391;28;20454;-68
2022/07/02 08:45:31;;;;;;;1.70;1.30;;;22.10;94.40;;;;;;5052669;28;20552;-68
2022/07/02 08:48:02;;;;;;;1.40;1.30;;;22.10;96.20;;;;;;5053520;28;20455;-68
2022/07/02 08:50:30;;;;;;;1.40;1.30;;;22.20;97.90;;;;;;5053187;28;20478;-68
2022/07/02 08:52:57;;;;;;;1.43;1.33;;;22.40;95.30;;;;;;5053331;28;20552;-68
2022/07/02 08:55:25;;;;;;;2.07;1.33;;;22.50;95.60;;;;;;5053294;28;20504;-68
2022/07/02 08:57:53;;;;;;;1.40;1.20;;;22.60;92.40;;;;;;5053206;28;20461;-68
2022/07/02 09:00:23;;;;;;;1.83;1.30;;;22.70;88.30;;;;;;5053468;28;20469;-68
2022/07/02 09:02:53;;;;;;;1.40;1.40;;;22.70;92.00;;;;;;5053094;28;20460;-68
2022/07/02 09:05:22;;;;;;;2.10;1.27;;;22.80;90.50;;;;;;5053060;28;20524;-68
2022/07/02 09:07:51;;;;;;;1.30;1.20;;;22.90;91.50;;;;;;5051881;28;20461;-68
2022/07/02 09:10:23;;;;;;;2.27;1.60;;;23.10;94.00;;;;;;5053008;28;20869;-68
2022/07/02 09:12:52;;;;;;;2.03;1.50;;;23.20;94.50;;;;;;5052942;28;20492;-68
2022/07/02 09:15:21;;;;;;;1.57;1.40;;;23.40;92.80;;;;;;5051733;28;20489;-67
2022/07/02 09:17:48;;;;;;;1.57;1.30;;;23.40;91.00;;;;;;5052817;28;20454;-67
2022/07/02 09:20:15;;;;;;;1.50;1.30;;;23.50;93.00;;;;;;5052691;28;20469;-68
2022/07/02 09:22:45;;;;;;;1.43;1.30;;;23.60;91.80;;;;;;5053015;28;20576;-67
2022/07/02 09:25:15;;;;;;;2.17;1.30;;;23.80;92.80;;;;;;5053556;28;21031;-67
2022/07/02 09:27:43;;;;;;;1.30;1.17;;;23.80;92.70;;;;;;5053702;28;20458;-67
2022/07/02 09:30:13;;;;;;;1.50;1.43;;;23.90;95.10;;;;;;5053579;28;20485;-67
2022/07/02 09:32:43;;;;;;;3.80;1.50;;;23.90;88.90;;;;;;5053555;28;20461;-67
2022/07/02 09:35:18;;;;;;;1.90;1.60;;;24.00;93.00;;;;;;5053165;28;20473;-67
2022/07/02 09:37:45;;;;;;;2.33;1.87;;;24.10;91.80;;;;;;5053114;28;20453;-67
2022/07/02 09:40:13;;;;;;;1.80;1.60;;;24.10;91.30;;;;;;5052996;28;20454;-68
2022/07/02 09:42:45;;;;;;;1.67;1.40;;;24.30;89.20;;;;;;5050772;28;20462;-67
2022/07/02 09:45:13;;;;;;;1.80;1.50;;;24.30;90.20;;;;;;5051225;28;20464;-68
2022/07/02 09:47:48;;;;;;;1.50;1.30;;;24.40;88.70;;;;;;5051942;28;20465;-69
2022/07/02 09:50:17;;;;;;;1.40;1.40;;;24.60;89.60;;;;;;5052217;28;20477;-68
2022/07/02 09:52:50;;;;;;;1.50;1.50;;;24.70;91.20;;;;;;5050289;28;20503;-69
2022/07/02 09:55:23;;;;;;;1.93;1.40;;;24.80;90.10;;;;;;5052217;28;20462;-68
2022/07/02 09:57:51;;;;;;;1.60;1.33;;;25.00;90.10;;;;;;5052052;28;20462;-68
2022/07/02 10:00:20;;;;;;;2.00;1.50;;;25.00;87.00;;;;;;5052020;28;20457;-69
2022/07/02 10:02:50;;;;;;;6.73;1.53;;;25.00;87.80;;;;;;5051760;28;20465;-66
2022/07/02 10:05:23;;;;;;;1.40;1.30;;;25.20;89.90;;;;;;5052203;28;20460;-69
2022/07/02 10:07:52;;;;;;;1.60;1.30;;;25.30;87.60;;;;;;5050764;28;20943;-74
2022/07/02 10:10:27;;;;;;;4.13;1.50;;;25.30;87.70;;;;;;5050543;28;20234;-66
2022/07/02 10:12:57;;;;;;;1.40;1.40;;;25.40;86.00;;;;;;5051834;28;20515;-67
2022/07/02 10:15:29;;;;;;;1.60;1.50;;;25.50;87.40;;;;;;5051969;28;20839;-66
2022/07/02 10:17:59;;;;;;;1.90;1.50;;;25.60;85.60;;;;;;5051799;28;20516;-67
2022/07/02 10:20:26;;;;;;;1.40;1.20;;;25.80;83.30;;;;;;5051932;28;20952;-66
2022/07/02 10:22:53;;;;;;;1.50;1.27;;;25.80;82.40;;;;;;5051630;28;20519;-67
2022/07/02 10:25:21;;;;;;;2.33;1.50;;;25.80;82.90;;;;;;5051333;28;20473;-66
2022/07/02 10:27:48;;;;;;;2.03;1.43;;;25.80;86.00;;;;;;5051627;28;20461;-66
2022/07/02 10:30:17;;;;;;;2.10;1.57;;;25.80;83.40;;;;;;5051559;28;20485;-66
2022/07/02 10:32:54;;;;;;;1.40;1.23;;;25.70;80.90;;;;;;5051821;28;20489;-66
2022/07/02 10:35:26;;;;;;;1.70;1.30;;;25.80;81.80;;;;;;5051592;28;20462;-66
2022/07/02 10:37:58;;;;;;;1.50;1.50;;;25.90;84.20;;;;;;5051530;28;20457;-67
2022/07/02 10:40:26;;;;;;;1.90;1.40;;;26.10;81.50;;;;;;5051754;28;20764;-68
2022/07/02 10:42:57;;;;;;;1.63;1.40;;;26.20;81.40;;;;;;5051319;28;20458;-68
2022/07/02 10:45:25;;;;;;;1.30;1.20;;;26.30;81.60;;;;;;5051299;28;20547;-69
2022/07/02 10:47:58;;;;;;;1.40;1.30;;;26.50;82.70;;;;;;5051363;28;20462;-69
2022/07/02 10:50:46;;;;;;;1.40;1.40;;;26.70;83.10;;;;;;5051231;28;20505;-68
2022/07/02 10:53:17;;;;;;;1.30;1.20;;;26.80;79.80;;;;;;5051160;28;20464;-69
2022/07/02 10:55:45;;;;;;;2.40;1.33;;;26.80;78.20;;;;;;5051182;28;20503;-66
2022/07/02 10:58:20;;;;;;;1.30;1.20;;;26.90;79.80;;;;;;5051090;28;20457;-65
2022/07/02 11:00:47;;;;;;;1.80;1.63;;;27.00;79.80;;;;;;5051117;28;20457;-69
2022/07/02 11:03:16;;;;;;;1.40;1.30;;;27.10;78.00;;;;;;5051064;28;20465;-68
2022/07/02 11:05:56;;;;;;;2.93;1.30;;;27.10;74.60;;;;;;5051039;28;20472;-67
2022/07/02 11:08:54;;;;;;;1.30;1.20;;;27.10;75.70;;;;;;5050954;28;20464;-67
2022/07/02 11:11:39;;;;;;;1.83;1.50;;;27.20;77.80;;;;;;5050940;28;20486;-67
2022/07/02 11:14:10;;;;;;;1.30;1.30;;;27.30;77.40;;;;;;5038520;28;20998;-70
2022/07/02 11:16:41;;;;;;;1.57;1.47;;;27.30;77.00;;;;;;5050800;28;20500;-70
2022/07/02 11:19:16;;;;;;;1.37;1.30;;;27.30;78.00;;;;;;5050859;28;20991;-69
2022/07/02 11:21:44;;;;;;;3.00;1.30;;;27.20;76.00;;;;;;5050806;28;20990;-70
2022/07/02 11:24:12;;;;;;;1.63;1.43;;;27.00;76.40;;;;;;5050897;28;20461;-70
2022/07/02 11:26:42;;;;;;;1.70;1.40;;;27.10;76.80;;;;;;5050825;28;20473;-70
2022/07/02 11:29:10;;;;;;;2.80;1.43;;;27.20;77.00;;;;;;5050841;28;20476;-70
2022/07/02 11:31:39;;;;;;;1.40;1.27;;;27.40;75.40;;;;;;5050984;28;20485;-71
2022/07/02 11:34:06;;;;;;;4.00;2.73;;;27.70;80.30;;;;;;5050967;28;20485;-70
2022/07/02 11:36:33;;;;;;;1.90;1.50;;;27.80;74.30;;;;;;5051089;28;20945;-70
2022/07/02 11:39:09;;;;;;;1.67;1.30;;;27.90;75.80;;;;;;5053585;28;20466;-70
2022/07/02 11:41:36;;;;;;;1.60;1.50;;;27.80;75.50;;;;;;5054841;28;20560;-70
2022/07/02 11:44:15;;;;;;;1.40;1.40;;;27.70;78.10;;;;;;5054541;28;20457;-71
2022/07/02 11:46:43;;;;;;;1.50;1.43;;;27.80;76.00;;;;;;5054609;28;20461;-70
2022/07/02 11:49:16;;;;;;;2.27;1.60;;;27.90;74.00;;;;;;5054436;28;20458;-71
2022/07/02 11:51:45;;;;;;;1.73;1.50;;;27.90;75.20;;;;;;5054138;28;20905;-69
2022/07/02 11:54:15;;;;;;;1.80;1.40;;;28.10;73.30;;;;;;5054167;28;20457;-70
2022/07/02 11:56:43;;;;;;;1.77;1.53;;;28.10;73.50;;;;;;5054099;28;20457;-70
2022/07/02 11:59:11;;;;;;;1.43;1.37;;;28.20;75.10;;;;;;5054094;28;20828;-70
2022/07/02 12:01:40;;;;;;;2.10;1.60;;;28.20;73.90;;;;;;5054231;28;20730;-64
2022/07/02 12:04:09;;;;;;;2.43;1.60;;;28.40;75.20;;;;;;5054125;28;20484;-67
2022/07/02 12:06:38;;;;;;;1.60;1.50;;;28.40;74.30;;;;;;5054126;28;20457;-67
2022/07/02 12:09:08;;;;;;;1.57;1.40;;;28.60;73.60;;;;;;5053749;28;20453;-68
2022/07/02 12:11:38;;;;;;;1.30;1.30;;;28.80;75.10;;;;;;5054106;28;20493;-66
2022/07/02 12:14:07;;;;;;;1.40;1.30;;;29.00;73.50;;;;;;5053914;28;20974;-65
2022/07/02 12:16:36;;;;;;;2.13;1.70;;;29.10;76.70;;;;;;5054012;28;20468;-67
2022/07/02 12:19:05;;;;;;;1.70;1.50;;;29.20;72.20;;;;;;5053653;28;20962;-64
2022/07/02 12:21:37;;;;;;;1.53;1.40;;;29.10;73.00;;;;;;5053773;28;20465;-66
2022/07/02 12:24:06;;;;;;;1.63;1.40;;;29.10;72.70;;;;;;5053859;28;20465;-64
2022/07/02 12:26:34;;;;;;;1.50;1.30;;;29.10;76.80;;;;;;5053733;28;20469;-65
2022/07/02 12:31:54;;;;;;;2.27;1.50;;;29.40;72.60;;;;;;5053806;28;20484;-66
2022/07/02 12:34:23;;;;;;;2.10;1.30;;;29.30;75.40;;;;;;5053823;28;20544;-66
2022/07/02 12:36:58;;;;;;;1.50;1.33;;;29.40;73.90;;;;;;5063065;28;20460;-66
2022/07/02 12:39:38;;;;;;;1.93;1.43;;;29.40;74.10;;;;;;5070666;28;21053;-66
2022/07/02 12:42:14;;;;;;;1.40;1.30;;;29.30;75.60;;;;;;5074152;28;20457;-68
2022/07/02 12:44:53;;;;;;;1.73;1.60;;;29.30;74.10;;;;;;5074193;28;20461;-69
2022/07/02 12:47:25;;;;;;;1.60;1.40;;;29.40;74.80;;;;;;5074060;28;20459;-70
2022/07/02 12:49:57;;;;;;;1.30;1.27;;;29.50;74.40;;;;;;5073628;28;20453;-70
2022/07/02 12:52:27;;;;;;;1.63;1.50;;;29.60;76.80;;;;;;5073725;28;20492;-75
2022/07/02 12:54:54;;;;;;;1.50;1.37;;;29.60;74.80;;;;;;5073599;28;20510;-75
2022/07/02 12:57:23;;;;;;;1.80;1.60;;;29.60;73.20;;;;;;5073890;28;20515;-75
2022/07/02 12:59:53;;;;;;;1.47;1.30;;;29.60;74.90;;;;;;5073754;28;20452;-75
2022/07/02 13:02:26;;;;;;;1.70;1.43;;;29.40;75.00;;;;;;5073829;28;20476;-74
2022/07/02 13:04:54;;;;;;;1.70;1.47;;;29.70;73.10;;;;;;5073940;28;20461;-61
2022/07/02 13:07:22;;;;;;;1.53;1.50;;;29.90;76.20;;;;;;5073823;28;20514;-63